SeattleWeather.com

KSEA - Seattle/Metro, Washington, USA
Distance from station: SSW 24mi, 39km
Updated: Thu, 15-Apr-2021 12:53am PDT
Clear
Clear
 Wind from E
Wind: E 5 mph , 7 km/h
Temperature: 54°F , 12°C
Dew Point: 32°F , 0°C
Humidity: 44%
Barometer: 30.09 inHg , 1019 hPa
Clouds: Clear
Visibility: 10 miles , 16 km
2021/04/15 07:53 KSEA 150753Z 10004KT 10SM CLR 12/00 A3009 RMK AO2 SLP194 T01220000
KBFI - Seattle/Boeing, Washington, USA
Distance from station: SSW 18mi, 29km
Updated: Thu, 15-Apr-2021 12:53am PDT
Clear
Clear
 Wind from calm
Wind: Calm
Temperature: 52°F , 11°C
Dew Point: 32°F , 0°C
Humidity: 47%
Barometer: 30.09 inHg , 1019 hPa
Clouds: Clear
Visibility: 10 miles , 16 km
2021/04/15 07:53 KBFI 150753Z 00000KT 10SM CLR 11/00 A3009 RMK AO2 SLP189 T01060000
NWS Forecast for 3 Miles NNW Boulevard Park, WA
National Weather Service Forecast for: 3 Miles NNW Boulevard Park, WA
Issued by: National Weather Service Seattle/Tacoma, WA
Updated: Wed, 14-Apr-2021 5:03pm PDT
 
  Thursday

Thursday: Sunny
Sunny
Friday

Friday: Sunny
Sunny
Saturday

Saturday: Sunny
Sunny
Sunday

Sunday: Sunny
Sunny
Monday

Monday: Mostly Sunny
Mostly Sunny
Tuesday

Tuesday: Slight Chance Light Rain then Mostly Sunny
Slight Chance Light Rain then Mostly Sunny
Wednesday

Wednesday: Mostly Sunny
Mostly Sunny
  Hi 71 °F Hi 75 °F Hi 77 °F Hi 76 °F Hi 71 °F Hi 66 °F Hi 66 °F
 
Tonight

Tonight: Clear
Clear
Thursday
Night
Thursday Night: Clear
Clear
Friday
Night
Friday Night: Clear
Clear
Saturday
Night
Saturday Night: Clear
Clear
Sunday
Night
Sunday Night: Clear
Clear
Monday
Night
Monday Night: Slight Chance Light Rain
Slight Chance Light Rain
Tuesday
Night
Tuesday Night: Partly Cloudy
Partly Cloudy
 
Lo 41 °F Lo 45 °F Lo 48 °F Lo 49 °F Lo 49 °F Lo 48 °F Lo 46 °F  

 

Tonight
 
Clear, with a low around 41. Northeast wind around 5 mph.
Thursday
 
Sunny, with a high near 71. North wind 1 to 9 mph.
Thursday Night
 
Clear, with a low around 45. North wind 2 to 9 mph.
Friday
 
Sunny, with a high near 75. North northeast wind 3 to 9 mph.
Friday Night
 
Clear, with a low around 48. North northeast wind 3 to 9 mph.
Saturday
 
Sunny, with a high near 77.
Saturday Night
 
Clear, with a low around 49.
Sunday
 
Sunny, with a high near 76.
Sunday Night
 
Clear, with a low around 49.
Monday
 
Mostly sunny, with a high near 71.
Monday Night
 
A slight chance of rain after 11pm. Partly cloudy, with a low around 48.
Tuesday
 
A slight chance of rain before 11am. Mostly sunny, with a high near 66.
Tuesday Night
 
Partly cloudy, with a low around 46.
Wednesday
 
Mostly sunny, with a high near 66.

 

Forecast from NOAA-NWS for 3 Miles NNW Boulevard Park, WA.